sensor_id;sensor_type;location;lat;lon;timestamp;P1;durP1;ratioP1;P2;durP2;ratioP2
21330;SDS011;10824;51.632;4.950;2023-02-28T00:01:12;5.35;;;2.70;;
21330;SDS011;10824;51.632;4.950;2023-02-28T00:03:40;4.03;;;2.15;;
21330;SDS011;10824;51.632;4.950;2023-02-28T00:06:08;4.40;;;2.13;;
21330;SDS011;10824;51.632;4.950;2023-02-28T00:08:36;2.63;;;1.85;;
21330;SDS011;10824;51.632;4.950;2023-02-28T00:11:04;7.65;;;2.25;;
21330;SDS011;10824;51.632;4.950;2023-02-28T00:13:33;2.00;;;1.58;;
21330;SDS011;10824;51.632;4.950;2023-02-28T00:16:10;2.70;;;1.75;;
21330;SDS011;10824;51.632;4.950;2023-02-28T00:18:39;3.33;;;2.15;;
21330;SDS011;10824;51.632;4.950;2023-02-28T00:21:07;3.80;;;2.40;;
21330;SDS011;10824;51.632;4.950;2023-02-28T00:23:34;2.85;;;1.80;;
21330;SDS011;10824;51.632;4.950;2023-02-28T00:26:02;3.08;;;2.50;;
21330;SDS011;10824;51.632;4.950;2023-02-28T00:28:29;6.65;;;2.85;;
21330;SDS011;10824;51.632;4.950;2023-02-28T00:30:58;6.55;;;2.55;;
21330;SDS011;10824;51.632;4.950;2023-02-28T00:33:27;2.10;;;1.83;;
21330;SDS011;10824;51.632;4.950;2023-02-28T00:36:05;4.97;;;2.33;;
21330;SDS011;10824;51.632;4.950;2023-02-28T00:38:35;5.88;;;1.67;;
21330;SDS011;10824;51.632;4.950;2023-02-28T00:41:02;5.38;;;1.50;;
21330;SDS011;10824;51.632;4.950;2023-02-28T00:43:32;2.65;;;1.85;;
21330;SDS011;10824;51.632;4.950;2023-02-28T00:46:03;5.85;;;1.80;;
21330;SDS011;10824;51.632;4.950;2023-02-28T00:48:30;3.35;;;1.60;;
21330;SDS011;10824;51.632;4.950;2023-02-28T00:50:58;3.00;;;1.90;;
21330;SDS011;10824;51.632;4.950;2023-02-28T00:53:25;2.60;;;1.65;;
21330;SDS011;10824;51.632;4.950;2023-02-28T00:55:52;6.07;;;2.08;;
21330;SDS011;10824;51.632;4.950;2023-02-28T00:58:19;2.78;;;1.60;;
21330;SDS011;10824;51.632;4.950;2023-02-28T01:00:46;5.55;;;1.88;;
21330;SDS011;10824;51.632;4.950;2023-02-28T01:03:17;4.50;;;2.55;;
21330;SDS011;10824;51.632;4.950;2023-02-28T01:05:45;2.85;;;1.38;;
21330;SDS011;10824;51.632;4.950;2023-02-28T01:08:13;1.98;;;1.42;;
21330;SDS011;10824;51.632;4.950;2023-02-28T01:10:42;3.70;;;1.65;;
21330;SDS011;10824;51.632;4.950;2023-02-28T01:13:10;5.53;;;2.08;;
21330;SDS011;10824;51.632;4.950;2023-02-28T01:15:38;2.97;;;1.90;;
21330;SDS011;10824;51.632;4.950;2023-02-28T01:18:08;5.32;;;2.15;;
21330;SDS011;10824;51.632;4.950;2023-02-28T01:20:36;5.90;;;2.72;;
21330;SDS011;10824;51.632;4.950;2023-02-28T01:23:04;2.38;;;1.35;;
21330;SDS011;10824;51.632;4.950;2023-02-28T01:25:36;3.60;;;1.33;;
21330;SDS011;10824;51.632;4.950;2023-02-28T01:28:03;2.28;;;1.42;;
21330;SDS011;10824;51.632;4.950;2023-02-28T01:30:33;5.28;;;1.48;;
21330;SDS011;10824;51.632;4.950;2023-02-28T01:33:00;1.90;;;1.45;;
21330;SDS011;10824;51.632;4.950;2023-02-28T01:35:27;3.20;;;2.67;;
21330;SDS011;10824;51.632;4.950;2023-02-28T01:37:54;4.82;;;1.83;;
21330;SDS011;10824;51.632;4.950;2023-02-28T01:40:21;5.07;;;1.77;;
21330;SDS011;10824;51.632;4.950;2023-02-28T01:42:49;3.20;;;1.73;;
21330;SDS011;10824;51.632;4.950;2023-02-28T01:45:20;3.65;;;2.13;;
21330;SDS011;10824;51.632;4.950;2023-02-28T01:47:50;1.65;;;1.55;;
21330;SDS011;10824;51.632;4.950;2023-02-28T01:50:19;3.13;;;1.92;;
21330;SDS011;10824;51.632;4.950;2023-02-28T01:52:50;2.85;;;2.08;;
21330;SDS011;10824;51.632;4.950;2023-02-28T01:55:22;4.18;;;2.30;;
21330;SDS011;10824;51.632;4.950;2023-02-28T01:57:57;3.28;;;2.55;;
21330;SDS011;10824;51.632;4.950;2023-02-28T02:00:29;3.03;;;1.65;;
21330;SDS011;10824;51.632;4.950;2023-02-28T02:02:57;13.63;;;2.78;;
21330;SDS011;10824;51.632;4.950;2023-02-28T02:05:28;3.03;;;2.22;;
21330;SDS011;10824;51.632;4.950;2023-02-28T02:08:08;3.33;;;2.05;;
21330;SDS011;10824;51.632;4.950;2023-02-28T02:13:24;3.13;;;2.33;;
21330;SDS011;10824;51.632;4.950;2023-02-28T02:25:11;2.42;;;2.20;;
21330;SDS011;10824;51.632;4.950;2023-02-28T02:42:27;4.82;;;2.67;;
21330;SDS011;10824;51.632;4.950;2023-02-28T02:48:13;4.55;;;2.05;;
21330;SDS011;10824;51.632;4.950;2023-02-28T02:50:52;2.53;;;1.75;;
21330;SDS011;10824;51.632;4.950;2023-02-28T02:53:24;3.20;;;2.53;;
21330;SDS011;10824;51.632;4.950;2023-02-28T02:55:58;3.38;;;1.92;;
21330;SDS011;10824;51.632;4.950;2023-02-28T02:58:30;3.13;;;1.67;;
21330;SDS011;10824;51.632;4.950;2023-02-28T03:01:01;2.67;;;1.70;;
21330;SDS011;10824;51.632;4.950;2023-02-28T03:03:31;2.42;;;2.05;;
21330;SDS011;10824;51.632;4.950;2023-02-28T03:06:01;1.85;;;1.65;;
21330;SDS011;10824;51.632;4.950;2023-02-28T03:08:33;9.30;;;2.28;;
21330;SDS011;10824;51.632;4.950;2023-02-28T03:11:04;3.80;;;2.15;;
21330;SDS011;10824;51.632;4.950;2023-02-28T03:16:22;5.75;;;1.83;;
21330;SDS011;10824;51.632;4.950;2023-02-28T03:24:15;2.53;;;1.75;;
21330;SDS011;10824;51.632;4.950;2023-02-28T03:26:56;1.58;;;1.25;;
21330;SDS011;10824;51.632;4.950;2023-02-28T03:32:24;1.65;;;1.55;;
21330;SDS011;10824;51.632;4.950;2023-02-28T03:35:24;5.00;;;2.28;;
21330;SDS011;10824;51.632;4.950;2023-02-28T03:38:02;3.90;;;1.50;;
21330;SDS011;10824;51.632;4.950;2023-02-28T03:40:51;4.97;;;2.17;;
21330;SDS011;10824;51.632;4.950;2023-02-28T03:43:28;2.03;;;1.83;;
21330;SDS011;10824;51.632;4.950;2023-02-28T03:46:00;3.65;;;2.50;;
21330;SDS011;10824;51.632;4.950;2023-02-28T03:51:03;2.13;;;1.92;;
21330;SDS011;10824;51.632;4.950;2023-02-28T03:53:36;4.68;;;1.88;;
21330;SDS011;10824;51.632;4.950;2023-02-28T03:56:14;4.35;;;1.90;;
21330;SDS011;10824;51.632;4.950;2023-02-28T04:01:54;2.10;;;1.90;;
21330;SDS011;10824;51.632;4.950;2023-02-28T04:04:24;3.17;;;1.83;;
21330;SDS011;10824;51.632;4.950;2023-02-28T04:06:52;3.22;;;1.92;;
21330;SDS011;10824;51.632;4.950;2023-02-28T04:09:26;2.70;;;1.50;;
21330;SDS011;10824;51.632;4.950;2023-02-28T04:11:54;3.00;;;1.55;;
21330;SDS011;10824;51.632;4.950;2023-02-28T04:14:23;2.03;;;1.70;;
21330;SDS011;10824;51.632;4.950;2023-02-28T04:16:51;3.67;;;1.95;;
21330;SDS011;10824;51.632;4.950;2023-02-28T04:19:18;6.68;;;2.40;;
21330;SDS011;10824;51.632;4.950;2023-02-28T04:21:52;4.72;;;1.70;;
21330;SDS011;10824;51.632;4.950;2023-02-28T04:24:21;1.50;;;1.30;;
21330;SDS011;10824;51.632;4.950;2023-02-28T04:26:51;3.83;;;1.77;;
21330;SDS011;10824;51.632;4.950;2023-02-28T04:29:23;3.60;;;2.17;;
21330;SDS011;10824;51.632;4.950;2023-02-28T04:31:54;4.88;;;1.90;;
21330;SDS011;10824;51.632;4.950;2023-02-28T04:34:25;4.70;;;2.50;;
21330;SDS011;10824;51.632;4.950;2023-02-28T04:36:53;1.95;;;1.48;;
21330;SDS011;10824;51.632;4.950;2023-02-28T04:39:37;4.18;;;1.58;;
21330;SDS011;10824;51.632;4.950;2023-02-28T04:42:04;2.90;;;2.42;;
21330;SDS011;10824;51.632;4.950;2023-02-28T04:44:31;2.25;;;1.83;;
21330;SDS011;10824;51.632;4.950;2023-02-28T04:46:58;3.65;;;1.90;;
21330;SDS011;10824;51.632;4.950;2023-02-28T04:49:26;3.20;;;2.05;;
21330;SDS011;10824;51.632;4.950;2023-02-28T04:51:53;3.35;;;2.28;;
21330;SDS011;10824;51.632;4.950;2023-02-28T04:54:20;3.55;;;2.03;;
21330;SDS011;10824;51.632;4.950;2023-02-28T04:56:47;2.88;;;1.67;;
21330;SDS011;10824;51.632;4.950;2023-02-28T04:59:16;5.75;;;1.95;;
21330;SDS011;10824;51.632;4.950;2023-02-28T05:01:48;4.47;;;2.03;;
21330;SDS011;10824;51.632;4.950;2023-02-28T05:04:15;2.78;;;2.55;;
21330;SDS011;10824;51.632;4.950;2023-02-28T05:06:43;3.55;;;2.00;;
21330;SDS011;10824;51.632;4.950;2023-02-28T05:09:11;6.32;;;2.20;;
21330;SDS011;10824;51.632;4.950;2023-02-28T05:11:38;4.25;;;2.20;;
21330;SDS011;10824;51.632;4.950;2023-02-28T05:14:14;2.80;;;2.25;;
21330;SDS011;10824;51.632;4.950;2023-02-28T05:16:41;4.57;;;2.00;;
21330;SDS011;10824;51.632;4.950;2023-02-28T05:19:08;4.68;;;2.17;;
21330;SDS011;10824;51.632;4.950;2023-02-28T05:21:40;3.00;;;1.92;;
21330;SDS011;10824;51.632;4.950;2023-02-28T05:24:11;5.57;;;2.70;;
21330;SDS011;10824;51.632;4.950;2023-02-28T05:26:40;3.28;;;2.40;;
21330;SDS011;10824;51.632;4.950;2023-02-28T05:29:08;6.82;;;3.60;;
21330;SDS011;10824;51.632;4.950;2023-02-28T05:31:36;8.32;;;3.15;;
21330;SDS011;10824;51.632;4.950;2023-02-28T05:34:04;8.25;;;4.55;;
21330;SDS011;10824;51.632;4.950;2023-02-28T05:36:32;6.00;;;3.08;;
21330;SDS011;10824;51.632;4.950;2023-02-28T05:38:59;7.60;;;4.28;;
21330;SDS011;10824;51.632;4.950;2023-02-28T05:41:26;10.13;;;4.85;;
21330;SDS011;10824;51.632;4.950;2023-02-28T05:43:54;11.57;;;6.45;;
21330;SDS011;10824;51.632;4.950;2023-02-28T05:46:21;7.50;;;5.15;;
21330;SDS011;10824;51.632;4.950;2023-02-28T05:48:49;12.80;;;7.20;;
21330;SDS011;10824;51.632;4.950;2023-02-28T05:51:16;12.15;;;7.13;;
21330;SDS011;10824;51.632;4.950;2023-02-28T05:53:44;13.95;;;6.65;;
21330;SDS011;10824;51.632;4.950;2023-02-28T05:56:11;15.55;;;6.47;;
21330;SDS011;10824;51.632;4.950;2023-02-28T05:58:38;11.68;;;5.53;;
21330;SDS011;10824;51.632;4.950;2023-02-28T06:04:03;9.45;;;4.15;;
21330;SDS011;10824;51.632;4.950;2023-02-28T06:06:32;7.93;;;5.00;;
21330;SDS011;10824;51.632;4.950;2023-02-28T06:09:03;11.65;;;6.05;;
21330;SDS011;10824;51.632;4.950;2023-02-28T06:11:31;16.77;;;5.15;;
21330;SDS011;10824;51.632;4.950;2023-02-28T06:14:00;12.13;;;4.68;;
21330;SDS011;10824;51.632;4.950;2023-02-28T06:16:28;6.53;;;3.70;;
21330;SDS011;10824;51.632;4.950;2023-02-28T06:18:57;7.13;;;3.05;;
21330;SDS011;10824;51.632;4.950;2023-02-28T06:21:25;5.15;;;2.70;;
21330;SDS011;10824;51.632;4.950;2023-02-28T06:23:55;4.80;;;2.67;;
21330;SDS011;10824;51.632;4.950;2023-02-28T06:26:24;4.43;;;2.88;;
21330;SDS011;10824;51.632;4.950;2023-02-28T06:28:51;4.30;;;2.55;;
21330;SDS011;10824;51.632;4.950;2023-02-28T06:31:18;5.93;;;3.05;;
21330;SDS011;10824;51.632;4.950;2023-02-28T06:33:45;4.35;;;3.15;;
21330;SDS011;10824;51.632;4.950;2023-02-28T06:36:14;4.40;;;2.15;;
21330;SDS011;10824;51.632;4.950;2023-02-28T06:38:42;6.82;;;2.13;;
21330;SDS011;10824;51.632;4.950;2023-02-28T06:41:10;5.25;;;2.03;;
21330;SDS011;10824;51.632;4.950;2023-02-28T06:43:39;2.20;;;1.50;;
21330;SDS011;10824;51.632;4.950;2023-02-28T06:46:08;4.18;;;2.58;;
21330;SDS011;10824;51.632;4.950;2023-02-28T06:48:38;6.20;;;2.65;;
21330;SDS011;10824;51.632;4.950;2023-02-28T06:51:09;3.25;;;2.42;;
21330;SDS011;10824;51.632;4.950;2023-02-28T06:53:46;2.47;;;1.80;;
21330;SDS011;10824;51.632;4.950;2023-02-28T06:56:14;3.20;;;1.60;;
21330;SDS011;10824;51.632;4.950;2023-02-28T06:58:45;2.40;;;1.77;;
21330;SDS011;10824;51.632;4.950;2023-02-28T07:01:16;4.13;;;2.03;;
21330;SDS011;10824;51.632;4.950;2023-02-28T07:03:45;3.10;;;1.88;;
21330;SDS011;10824;51.632;4.950;2023-02-28T07:06:12;7.75;;;2.00;;
21330;SDS011;10824;51.632;4.950;2023-02-28T07:08:39;2.55;;;2.35;;
21330;SDS011;10824;51.632;4.950;2023-02-28T07:11:07;2.75;;;2.30;;
21330;SDS011;10824;51.632;4.950;2023-02-28T07:13:35;2.33;;;1.70;;
21330;SDS011;10824;51.632;4.950;2023-02-28T07:16:03;1.77;;;1.67;;
21330;SDS011;10824;51.632;4.950;2023-02-28T07:18:32;3.00;;;1.60;;
21330;SDS011;10824;51.632;4.950;2023-02-28T07:21:03;3.92;;;1.65;;
21330;SDS011;10824;51.632;4.950;2023-02-28T07:23:32;2.42;;;1.60;;
21330;SDS011;10824;51.632;4.950;2023-02-28T07:25:59;5.30;;;2.03;;
21330;SDS011;10824;51.632;4.950;2023-02-28T07:28:26;5.88;;;1.52;;
21330;SDS011;10824;51.632;4.950;2023-02-28T07:30:53;2.17;;;1.40;;
21330;SDS011;10824;51.632;4.950;2023-02-28T07:33:21;3.30;;;1.92;;
21330;SDS011;10824;51.632;4.950;2023-02-28T07:35:50;2.30;;;1.65;;
21330;SDS011;10824;51.632;4.950;2023-02-28T07:38:17;1.38;;;1.27;;
21330;SDS011;10824;51.632;4.950;2023-02-28T07:40:44;3.00;;;1.50;;
21330;SDS011;10824;51.632;4.950;2023-02-28T07:43:11;3.55;;;2.28;;
21330;SDS011;10824;51.632;4.950;2023-02-28T07:45:38;6.50;;;2.50;;
21330;SDS011;10824;51.632;4.950;2023-02-28T07:48:07;1.63;;;1.52;;
21330;SDS011;10824;51.632;4.950;2023-02-28T07:50:36;5.05;;;3.25;;
21330;SDS011;10824;51.632;4.950;2023-02-28T07:53:03;2.65;;;1.75;;
21330;SDS011;10824;51.632;4.950;2023-02-28T07:55:30;3.00;;;1.38;;
21330;SDS011;10824;51.632;4.950;2023-02-28T07:57:57;6.85;;;2.05;;
21330;SDS011;10824;51.632;4.950;2023-02-28T08:00:24;3.08;;;1.88;;
21330;SDS011;10824;51.632;4.950;2023-02-28T08:02:52;3.33;;;2.38;;
21330;SDS011;10824;51.632;4.950;2023-02-28T08:05:19;4.60;;;2.25;;
21330;SDS011;10824;51.632;4.950;2023-02-28T08:07:48;1.90;;;1.80;;
21330;SDS011;10824;51.632;4.950;2023-02-28T08:10:16;3.10;;;2.42;;
21330;SDS011;10824;51.632;4.950;2023-02-28T08:12:43;4.20;;;2.42;;
21330;SDS011;10824;51.632;4.950;2023-02-28T08:15:10;2.95;;;2.17;;
21330;SDS011;10824;51.632;4.950;2023-02-28T08:17:37;2.20;;;1.48;;
21330;SDS011;10824;51.632;4.950;2023-02-28T08:20:04;2.33;;;1.30;;
21330;SDS011;10824;51.632;4.950;2023-02-28T08:22:31;2.97;;;1.88;;
21330;SDS011;10824;51.632;4.950;2023-02-28T08:24:58;4.07;;;1.60;;
21330;SDS011;10824;51.632;4.950;2023-02-28T08:27:25;3.97;;;1.33;;
21330;SDS011;10824;51.632;4.950;2023-02-28T08:29:52;3.75;;;1.92;;
21330;SDS011;10824;51.632;4.950;2023-02-28T08:32:19;2.75;;;1.98;;
21330;SDS011;10824;51.632;4.950;2023-02-28T08:34:55;2.63;;;1.88;;
21330;SDS011;10824;51.632;4.950;2023-02-28T08:37:23;2.20;;;1.08;;
21330;SDS011;10824;51.632;4.950;2023-02-28T08:39:50;1.30;;;1.20;;
21330;SDS011;10824;51.632;4.950;2023-02-28T08:42:21;1.88;;;1.70;;
21330;SDS011;10824;51.632;4.950;2023-02-28T08:44:48;3.60;;;1.38;;
21330;SDS011;10824;51.632;4.950;2023-02-28T08:47:16;1.90;;;1.67;;
21330;SDS011;10824;51.632;4.950;2023-02-28T08:49:43;1.30;;;1.10;;
21330;SDS011;10824;51.632;4.950;2023-02-28T08:52:10;15.43;;;2.25;;
21330;SDS011;10824;51.632;4.950;2023-02-28T08:54:37;2.55;;;1.00;;
21330;SDS011;10824;51.632;4.950;2023-02-28T08:57:04;1.10;;;1.10;;
21330;SDS011;10824;51.632;4.950;2023-02-28T08:59:31;2.17;;;1.55;;
21330;SDS011;10824;51.632;4.950;2023-02-28T09:01:59;0.80;;;0.70;;
21330;SDS011;10824;51.632;4.950;2023-02-28T09:04:26;0.80;;;0.80;;
21330;SDS011;10824;51.632;4.950;2023-02-28T09:06:53;1.08;;;0.98;;
21330;SDS011;10824;51.632;4.950;2023-02-28T09:09:20;0.95;;;0.60;;
21330;SDS011;10824;51.632;4.950;2023-02-28T09:11:47;0.57;;;0.57;;
21330;SDS011;10824;51.632;4.950;2023-02-28T09:14:14;0.95;;;0.82;;
21330;SDS011;10824;51.632;4.950;2023-02-28T09:16:43;1.40;;;0.60;;
21330;SDS011;10824;51.632;4.950;2023-02-28T09:19:11;1.88;;;0.90;;
21330;SDS011;10824;51.632;4.950;2023-02-28T09:21:39;0.60;;;0.60;;
21330;SDS011;10824;51.632;4.950;2023-02-28T09:24:07;0.60;;;0.60;;
21330;SDS011;10824;51.632;4.950;2023-02-28T09:26:34;1.85;;;0.70;;
21330;SDS011;10824;51.632;4.950;2023-02-28T09:29:12;1.80;;;0.85;;
21330;SDS011;10824;51.632;4.950;2023-02-28T09:31:43;1.88;;;1.02;;
21330;SDS011;10824;51.632;4.950;2023-02-28T09:34:10;0.63;;;0.60;;
21330;SDS011;10824;51.632;4.950;2023-02-28T09:36:37;0.82;;;0.68;;
21330;SDS011;10824;51.632;4.950;2023-02-28T09:39:11;2.35;;;0.77;;
21330;SDS011;10824;51.632;4.950;2023-02-28T09:41:40;2.28;;;1.20;;
21330;SDS011;10824;51.632;4.950;2023-02-28T09:44:36;1.08;;;0.80;;
21330;SDS011;10824;51.632;4.950;2023-02-28T09:50:23;1.02;;;0.80;;
21330;SDS011;10824;51.632;4.950;2023-02-28T09:53:11;0.90;;;0.70;;
21330;SDS011;10824;51.632;4.950;2023-02-28T09:56:01;0.93;;;0.77;;
21330;SDS011;10824;51.632;4.950;2023-02-28T09:58:54;0.93;;;0.80;;
21330;SDS011;10824;51.632;4.950;2023-02-28T10:01:31;2.35;;;0.70;;
21330;SDS011;10824;51.632;4.950;2023-02-28T10:06:51;1.63;;;0.95;;
21330;SDS011;10824;51.632;4.950;2023-02-28T10:09:26;2.15;;;0.70;;
21330;SDS011;10824;51.632;4.950;2023-02-28T10:11:59;1.08;;;1.05;;
21330;SDS011;10824;51.632;4.950;2023-02-28T10:14:30;1.02;;;0.93;;
21330;SDS011;10824;51.632;4.950;2023-02-28T10:19:42;2.35;;;1.02;;
21330;SDS011;10824;51.632;4.950;2023-02-28T10:25:05;2.58;;;1.00;;
21330;SDS011;10824;51.632;4.950;2023-02-28T10:27:44;0.98;;;0.80;;
21330;SDS011;10824;51.632;4.950;2023-02-28T10:30:12;0.82;;;0.80;;
21330;SDS011;10824;51.632;4.950;2023-02-28T10:32:45;0.88;;;0.80;;
21330;SDS011;10824;51.632;4.950;2023-02-28T10:35:17;1.00;;;0.70;;
21330;SDS011;10824;51.632;4.950;2023-02-28T10:37:50;0.98;;;0.80;;
21330;SDS011;10824;51.632;4.950;2023-02-28T10:48:36;0.80;;;0.80;;
21330;SDS011;10824;51.632;4.950;2023-02-28T10:51:12;1.45;;;0.80;;
21330;SDS011;10824;51.632;4.950;2023-02-28T10:53:48;0.88;;;0.80;;
21330;SDS011;10824;51.632;4.950;2023-02-28T10:56:27;0.93;;;0.70;;
21330;SDS011;10824;51.632;4.950;2023-02-28T11:01:43;0.70;;;0.65;;
21330;SDS011;10824;51.632;4.950;2023-02-28T11:07:10;4.35;;;0.88;;
21330;SDS011;10824;51.632;4.950;2023-02-28T11:09:46;1.50;;;1.40;;
21330;SDS011;10824;51.632;4.950;2023-02-28T11:12:20;2.67;;;0.88;;
21330;SDS011;10824;51.632;4.950;2023-02-28T11:14:54;0.68;;;0.68;;
21330;SDS011;10824;51.632;4.950;2023-02-28T11:17:25;0.70;;;0.70;;
21330;SDS011;10824;51.632;4.950;2023-02-28T11:19:58;1.05;;;0.88;;
21330;SDS011;10824;51.632;4.950;2023-02-28T11:22:45;0.60;;;0.60;;
21330;SDS011;10824;51.632;4.950;2023-02-28T11:25:25;0.75;;;0.70;;
21330;SDS011;10824;51.632;4.950;2023-02-28T11:28:03;0.93;;;0.80;;
21330;SDS011;10824;51.632;4.950;2023-02-28T11:30:35;0.70;;;0.70;;
21330;SDS011;10824;51.632;4.950;2023-02-28T11:35:58;1.33;;;0.60;;
21330;SDS011;10824;51.632;4.950;2023-02-28T11:38:28;1.10;;;0.70;;
21330;SDS011;10824;51.632;4.950;2023-02-28T11:54:55;4.30;;;1.20;;
21330;SDS011;10824;51.632;4.950;2023-02-28T11:59:50;1.15;;;1.05;;
21330;SDS011;10824;51.632;4.950;2023-02-28T12:03:31;0.85;;;0.70;;
21330;SDS011;10824;51.632;4.950;2023-02-28T12:23:33;0.73;;;0.73;;
21330;SDS011;10824;51.632;4.950;2023-02-28T12:26:36;1.20;;;0.90;;
21330;SDS011;10824;51.632;4.950;2023-02-28T12:29:17;1.15;;;0.90;;
21330;SDS011;10824;51.632;4.950;2023-02-28T12:31:52;1.40;;;0.80;;
21330;SDS011;10824;51.632;4.950;2023-02-28T12:34:26;0.60;;;0.60;;
21330;SDS011;10824;51.632;4.950;2023-02-28T12:36:58;2.38;;;0.77;;
21330;SDS011;10824;51.632;4.950;2023-02-28T12:39:41;4.13;;;1.10;;
21330;SDS011;10824;51.632;4.950;2023-02-28T12:42:19;2.42;;;1.10;;
21330;SDS011;10824;51.632;4.950;2023-02-28T12:47:57;4.07;;;0.52;;
21330;SDS011;10824;51.632;4.950;2023-02-28T12:50:27;1.02;;;0.60;;
21330;SDS011;10824;51.632;4.950;2023-02-28T12:52:59;1.23;;;1.13;;
21330;SDS011;10824;51.632;4.950;2023-02-28T12:55:35;7.13;;;1.45;;
21330;SDS011;10824;51.632;4.950;2023-02-28T12:58:08;1.48;;;1.38;;
21330;SDS011;10824;51.632;4.950;2023-02-28T13:01:02;9.00;;;0.90;;
21330;SDS011;10824;51.632;4.950;2023-02-28T13:09:55;1.10;;;1.00;;
21330;SDS011;10824;51.632;4.950;2023-02-28T13:12:25;1.27;;;1.00;;
21330;SDS011;10824;51.632;4.950;2023-02-28T13:17:42;0.93;;;0.77;;
21330;SDS011;10824;51.632;4.950;2023-02-28T13:20:37;0.98;;;0.65;;
21330;SDS011;10824;51.632;4.950;2023-02-28T13:26:05;1.10;;;0.90;;
21330;SDS011;10824;51.632;4.950;2023-02-28T13:31:16;2.05;;;1.08;;
21330;SDS011;10824;51.632;4.950;2023-02-28T13:36:44;1.23;;;0.70;;
21330;SDS011;10824;51.632;4.950;2023-02-28T13:42:47;0.70;;;0.70;;
21330;SDS011;10824;51.632;4.950;2023-02-28T14:07:20;0.65;;;0.63;;
21330;SDS011;10824;51.632;4.950;2023-02-28T14:10:01;1.80;;;1.10;;
21330;SDS011;10824;51.632;4.950;2023-02-28T14:18:32;1.45;;;0.85;;
21330;SDS011;10824;51.632;4.950;2023-02-28T14:32:05;0.80;;;0.70;;
21330;SDS011;10824;51.632;4.950;2023-02-28T14:38:14;2.40;;;0.93;;
21330;SDS011;10824;51.632;4.950;2023-02-28T14:40:47;4.15;;;1.83;;
21330;SDS011;10824;51.632;4.950;2023-02-28T14:43:27;2.42;;;1.58;;
21330;SDS011;10824;51.632;4.950;2023-02-28T14:46:01;1.20;;;0.80;;
21330;SDS011;10824;51.632;4.950;2023-02-28T14:48:30;1.60;;;1.50;;
21330;SDS011;10824;51.632;4.950;2023-02-28T14:50:58;0.90;;;0.80;;
21330;SDS011;10824;51.632;4.950;2023-02-28T14:53:28;2.25;;;1.42;;
21330;SDS011;10824;51.632;4.950;2023-02-28T14:55:57;1.73;;;1.10;;
21330;SDS011;10824;51.632;4.950;2023-02-28T14:58:33;3.75;;;1.13;;
21330;SDS011;10824;51.632;4.950;2023-02-28T15:01:02;2.28;;;1.10;;
21330;SDS011;10824;51.632;4.950;2023-02-28T15:03:34;0.80;;;0.80;;
21330;SDS011;10824;51.632;4.950;2023-02-28T15:06:04;1.80;;;1.27;;
21330;SDS011;10824;51.632;4.950;2023-02-28T15:08:32;1.17;;;0.80;;
21330;SDS011;10824;51.632;4.950;2023-02-28T15:11:11;1.60;;;0.93;;
21330;SDS011;10824;51.632;4.950;2023-02-28T15:13:46;1.33;;;1.23;;
21330;SDS011;10824;51.632;4.950;2023-02-28T15:16:22;1.50;;;1.00;;
21330;SDS011;10824;51.632;4.950;2023-02-28T15:19:11;1.95;;;1.20;;
21330;SDS011;10824;51.632;4.950;2023-02-28T15:21:42;1.20;;;1.00;;
21330;SDS011;10824;51.632;4.950;2023-02-28T15:24:19;3.65;;;1.63;;
21330;SDS011;10824;51.632;4.950;2023-02-28T15:27:06;2.53;;;1.08;;
21330;SDS011;10824;51.632;4.950;2023-02-28T15:29:45;1.15;;;1.00;;
21330;SDS011;10824;51.632;4.950;2023-02-28T15:32:27;1.50;;;0.88;;
21330;SDS011;10824;51.632;4.950;2023-02-28T15:40:28;2.58;;;0.98;;
21330;SDS011;10824;51.632;4.950;2023-02-28T15:45:40;2.55;;;1.27;;
21330;SDS011;10824;51.632;4.950;2023-02-28T15:50:54;1.90;;;0.85;;
21330;SDS011;10824;51.632;4.950;2023-02-28T15:56:23;6.13;;;1.88;;
21330;SDS011;10824;51.632;4.950;2023-02-28T15:58:57;1.58;;;0.90;;
21330;SDS011;10824;51.632;4.950;2023-02-28T16:01:34;1.30;;;1.08;;
21330;SDS011;10824;51.632;4.950;2023-02-28T16:04:04;1.77;;;1.00;;
21330;SDS011;10824;51.632;4.950;2023-02-28T16:09:15;2.30;;;1.00;;
21330;SDS011;10824;51.632;4.950;2023-02-28T16:11:44;1.75;;;1.33;;
21330;SDS011;10824;51.632;4.950;2023-02-28T16:14:15;1.50;;;1.10;;
21330;SDS011;10824;51.632;4.950;2023-02-28T16:16:50;4.78;;;0.90;;
21330;SDS011;10824;51.632;4.950;2023-02-28T16:19:19;2.30;;;0.90;;
21330;SDS011;10824;51.632;4.950;2023-02-28T16:21:47;2.00;;;1.55;;
21330;SDS011;10824;51.632;4.950;2023-02-28T16:24:14;5.00;;;1.00;;
21330;SDS011;10824;51.632;4.950;2023-02-28T16:26:42;2.30;;;0.98;;
21330;SDS011;10824;51.632;4.950;2023-02-28T16:29:34;4.32;;;1.30;;
21330;SDS011;10824;51.632;4.950;2023-02-28T16:32:06;1.60;;;1.20;;
21330;SDS011;10824;51.632;4.950;2023-02-28T16:34:33;3.15;;;1.20;;
21330;SDS011;10824;51.632;4.950;2023-02-28T16:37:04;1.08;;;0.98;;
21330;SDS011;10824;51.632;4.950;2023-02-28T16:39:36;4.13;;;2.10;;
21330;SDS011;10824;51.632;4.950;2023-02-28T16:42:03;5.15;;;1.70;;
21330;SDS011;10824;51.632;4.950;2023-02-28T16:44:35;2.42;;;1.35;;
21330;SDS011;10824;51.632;4.950;2023-02-28T16:47:03;2.10;;;1.80;;
21330;SDS011;10824;51.632;4.950;2023-02-28T16:49:31;2.53;;;1.50;;
21330;SDS011;10824;51.632;4.950;2023-02-28T16:51:58;4.25;;;1.00;;
21330;SDS011;10824;51.632;4.950;2023-02-28T16:54:25;1.65;;;1.25;;
21330;SDS011;10824;51.632;4.950;2023-02-28T16:56:52;0.95;;;0.75;;
21330;SDS011;10824;51.632;4.950;2023-02-28T16:59:23;2.80;;;1.20;;
21330;SDS011;10824;51.632;4.950;2023-02-28T17:01:53;2.28;;;0.75;;
21330;SDS011;10824;51.632;4.950;2023-02-28T17:04:22;1.58;;;1.02;;
21330;SDS011;10824;51.632;4.950;2023-02-28T17:06:50;1.20;;;1.10;;
21330;SDS011;10824;51.632;4.950;2023-02-28T17:09:21;3.22;;;1.45;;
21330;SDS011;10824;51.632;4.950;2023-02-28T17:12:02;4.40;;;1.20;;
21330;SDS011;10824;51.632;4.950;2023-02-28T17:14:29;1.27;;;1.17;;
21330;SDS011;10824;51.632;4.950;2023-02-28T17:16:56;1.42;;;1.00;;
21330;SDS011;10824;51.632;4.950;2023-02-28T17:19:25;1.73;;;1.35;;
21330;SDS011;10824;51.632;4.950;2023-02-28T17:21:54;3.03;;;1.35;;
21330;SDS011;10824;51.632;4.950;2023-02-28T17:24:21;4.97;;;1.90;;
21330;SDS011;10824;51.632;4.950;2023-02-28T17:26:56;3.90;;;2.30;;
21330;SDS011;10824;51.632;4.950;2023-02-28T17:29:23;2.08;;;1.30;;
21330;SDS011;10824;51.632;4.950;2023-02-28T17:31:51;1.90;;;0.95;;
21330;SDS011;10824;51.632;4.950;2023-02-28T17:34:19;1.15;;;0.95;;
21330;SDS011;10824;51.632;4.950;2023-02-28T17:36:47;2.33;;;1.00;;
21330;SDS011;10824;51.632;4.950;2023-02-28T17:39:16;1.90;;;1.75;;
21330;SDS011;10824;51.632;4.950;2023-02-28T17:41:53;1.95;;;1.10;;
21330;SDS011;10824;51.632;4.950;2023-02-28T17:44:21;3.40;;;1.63;;
21330;SDS011;10824;51.632;4.950;2023-02-28T17:46:50;4.93;;;2.83;;
21330;SDS011;10824;51.632;4.950;2023-02-28T17:49:18;1.38;;;1.00;;
21330;SDS011;10824;51.632;4.950;2023-02-28T17:51:46;3.85;;;1.48;;
21330;SDS011;10824;51.632;4.950;2023-02-28T17:54:14;2.33;;;0.95;;
21330;SDS011;10824;51.632;4.950;2023-02-28T17:56:44;3.05;;;1.05;;
21330;SDS011;10824;51.632;4.950;2023-02-28T17:59:11;3.05;;;1.10;;
21330;SDS011;10824;51.632;4.950;2023-02-28T18:01:39;1.90;;;1.00;;
21330;SDS011;10824;51.632;4.950;2023-02-28T18:04:06;1.52;;;1.10;;
21330;SDS011;10824;51.632;4.950;2023-02-28T18:06:35;2.58;;;1.33;;
21330;SDS011;10824;51.632;4.950;2023-02-28T18:09:14;2.60;;;1.52;;
21330;SDS011;10824;51.632;4.950;2023-02-28T18:11:42;3.08;;;1.73;;
21330;SDS011;10824;51.632;4.950;2023-02-28T18:14:14;2.08;;;1.10;;
21330;SDS011;10824;51.632;4.950;2023-02-28T18:16:42;4.05;;;1.70;;
21330;SDS011;10824;51.632;4.950;2023-02-28T18:19:10;3.10;;;1.38;;
21330;SDS011;10824;51.632;4.950;2023-02-28T18:21:41;1.27;;;1.17;;
21330;SDS011;10824;51.632;4.950;2023-02-28T18:24:13;3.17;;;1.05;;
21330;SDS011;10824;51.632;4.950;2023-02-28T18:26:41;2.92;;;1.75;;